Aérodrome :
LOGIN :

S'inscrire | Disclaimer

   EN    FR    IT 

 










Légende :    VFR   VFR Marginal   IFR   IFR Intensif   IFR Très Intensif
Visi : 
Plafond : 
>= 8 km
>= 3000ft
5 à 8 km
1000 à 3000 ft
1500m à 5 km
500 à 1000 ft
800 à 1500m
200 à 500 ft
< 800m
< 200 ft
Symboles :   Orages  Brouillard  Fortes neiges  Fortes précipitations  Vent > 20 kt
SIGMETs :   Divers  Orages  Givrage  Turbulence  Onde Orograph.  Cendres Volcan.







- Altitude de l'aérodrome : 512 ft
- Code IATA : URO
- Voir les cartes d'approche


LFOP - Rouen Vallée de Seine

DERNIER METAR :
  • 180600Z AUTO 25004KT 0300 0250 R22/0300N FG VV/// 04/04 Q1025 BECMG 0100 FG

METARs EXPIRÉS :
  • 180530Z AUTO 23003KT 0450 0400 R22/0450N FG VV/// 04/04 Q1025 BECMG 0100 FG
  • 180500Z AUTO 21003KT 0400 R22/0450N FG VV/// 04/04 Q1025
  • 180430Z AUTO 00000KT 0300 R22/0375N FG VV/// 04/04 Q1025
  • 180400Z AUTO VRB03KT 0250 R22/0250N FG VV/// 03/03 Q1025
  • 180330Z AUTO 25003KT 200V280 0250 R22/0250N FG VV/// 04/03 Q1026

TAF TAF LFOP
Valide du 18 à 06h jusqu'au 19 à 06h UTC


180500Z 1806/1906 VRB02KT 0100 FG VV///
BECMG 1810/1812 7000 NSW BKN017
BECMG 1812/1814 26012KT
BECMG 1817/1820 OVC013
TEMPO 1820/1903 2000 RADZ OVC003
BECMG 1903/1906 36005KT BKN025
ATIS : +33 2 35 80 80 34
Météo : +33 2 32 86 52 80
Pas de NOTAMs connus pour ce terrain.



MET'MAP, la Météo Aéronautique d'un coup d'oeil ! - Copyright ORBIFLY Décembre 2007 - Disclaimer

ORBIFLY MET'MAP TEAM :

Programmation & Développement : Alexandra Zaïnal
Conception & Développement : Baudouin d'Aumeries
Co-Programmation & Développement : Marc-Olivier Méhu
Soutien technique & logistique : Manuel Goepfert

Contact : metmap@orbifly.com




SOURCES & CREDITS :

   NOAA